createdAt,value
2023-09-21T00:01:25.003Z,66.21
2023-09-21T00:03:56.558Z,66.40
2023-09-21T00:06:25.528Z,66.69
2023-09-21T00:08:55.293Z,66.46
2023-09-21T00:11:23.860Z,66.79
2023-09-21T00:13:52.068Z,67.08
2023-09-21T00:16:21.359Z,67.20
2023-09-21T00:18:51.172Z,66.72
2023-09-21T00:21:19.636Z,66.37
2023-09-21T00:23:49.668Z,66.49
2023-09-21T00:26:18.244Z,66.54
2023-09-21T00:28:52.594Z,66.38
2023-09-21T00:31:21.129Z,66.60
2023-09-21T00:33:50.842Z,67.40
2023-09-21T00:36:19.647Z,66.61
2023-09-21T00:38:49.797Z,66.46
2023-09-21T00:41:20.255Z,66.27
2023-09-21T00:43:49.906Z,66.87
2023-09-21T00:46:24.004Z,66.82
2023-09-21T00:48:54.535Z,66.36
2023-09-21T00:51:22.892Z,66.59
2023-09-21T00:53:51.706Z,66.40
2023-09-21T00:56:21.537Z,66.76
2023-09-21T00:58:54.968Z,67.91
2023-09-21T01:01:30.181Z,67.28
2023-09-21T01:04:07.408Z,67.56
2023-09-21T01:06:35.982Z,67.91
2023-09-21T01:09:07.861Z,68.49
2023-09-21T01:11:38.882Z,67.19
2023-09-21T01:14:08.212Z,67.29
2023-09-21T01:16:36.483Z,67.70
2023-09-21T01:19:06.192Z,67.50
2023-09-21T01:21:39.148Z,68.36
2023-09-21T01:24:12.443Z,67.77
2023-09-21T01:26:41.281Z,67.64
2023-09-21T01:29:10.632Z,67.63
2023-09-21T01:31:39.476Z,67.78
2023-09-21T01:34:08.526Z,67.80
2023-09-21T01:36:37.164Z,67.64
2023-09-21T01:39:09.346Z,67.92
2023-09-21T01:41:39.062Z,67.54
2023-09-21T01:44:08.633Z,67.49
2023-09-21T01:46:36.908Z,67.87
2023-09-21T01:49:05.660Z,67.83
2023-09-21T01:51:35.307Z,67.26
2023-09-21T01:54:08.287Z,67.78
2023-09-21T01:56:38.147Z,67.91
2023-09-21T01:59:07.112Z,67.57
2023-09-21T02:01:35.808Z,68.23
2023-09-21T02:04:05.664Z,67.60
2023-09-21T02:06:37.040Z,67.78
2023-09-21T02:09:06.809Z,67.93
2023-09-21T02:11:36.293Z,67.87
2023-09-21T02:14:07.127Z,67.21
2023-09-21T02:16:35.476Z,66.90
2023-09-21T02:19:03.820Z,67.70
2023-09-21T02:21:35.632Z,68.39
2023-09-21T02:24:05.949Z,68.76
2023-09-21T02:26:38.376Z,68.56
2023-09-21T02:29:08.122Z,68.06
2023-09-21T02:31:38.476Z,67.93
2023-09-21T02:34:06.781Z,67.36
2023-09-21T02:36:34.955Z,67.46
2023-09-21T02:39:04.587Z,68.02
2023-09-21T02:41:33.344Z,68.48
2023-09-21T02:44:01.582Z,68.22
2023-09-21T02:46:31.401Z,68.30
2023-09-21T02:49:00.098Z,68.15
2023-09-21T02:51:29.665Z,67.72
2023-09-21T02:54:01.077Z,68.15
2023-09-21T02:56:30.573Z,68.24
2023-09-21T02:58:58.829Z,68.77
2023-09-21T03:01:27.070Z,68.55
2023-09-21T03:03:57.051Z,68.72
2023-09-21T03:06:25.459Z,68.86
2023-09-21T03:08:53.734Z,68.31
2023-09-21T03:11:22.014Z,68.33
2023-09-21T03:13:50.288Z,68.42
2023-09-21T03:16:19.149Z,68.59
2023-09-21T03:18:48.851Z,68.21
2023-09-21T03:21:20.128Z,68.42
2023-09-21T03:23:48.547Z,67.75
2023-09-21T03:26:20.159Z,68.02
2023-09-21T03:28:49.400Z,68.08
2023-09-21T03:31:20.040Z,68.10
2023-09-21T03:33:48.629Z,68.30
2023-09-21T03:36:21.477Z,68.73
2023-09-21T03:38:50.601Z,70.04
2023-09-21T03:41:18.922Z,70.88
2023-09-21T03:43:47.974Z,71.29
2023-09-21T03:46:16.502Z,71.25
2023-09-21T03:48:45.447Z,71.39
2023-09-21T03:51:14.509Z,71.56
2023-09-21T03:53:44.173Z,70.96
2023-09-21T03:56:12.746Z,71.87
2023-09-21T03:58:41.274Z,71.41
2023-09-21T04:01:11.011Z,70.54
2023-09-21T04:03:40.078Z,70.83
2023-09-21T04:06:08.866Z,71.15
2023-09-21T04:08:37.521Z,70.48
2023-09-21T04:11:07.719Z,70.22
2023-09-21T04:13:35.963Z,70.43
2023-09-21T04:16:07.371Z,70.62
2023-09-21T04:18:36.394Z,71.12
2023-09-21T04:21:19.776Z,72.16
2023-09-21T04:23:50.339Z,71.79
2023-09-21T04:26:20.567Z,71.49
2023-09-21T04:28:51.538Z,71.88
2023-09-21T04:31:20.975Z,71.86
2023-09-21T04:33:49.449Z,71.61
2023-09-21T04:36:17.793Z,71.47
2023-09-21T04:38:49.946Z,71.75
2023-09-21T04:41:20.233Z,72.42
2023-09-21T04:43:49.588Z,73.14
2023-09-21T04:46:18.755Z,74.58
2023-09-21T04:48:47.751Z,74.92
2023-09-21T04:51:17.347Z,76.29
2023-09-21T04:53:46.778Z,77.29
2023-09-21T04:56:15.276Z,77.92
2023-09-21T04:58:45.279Z,78.33
2023-09-21T05:01:14.087Z,78.20
2023-09-21T05:03:43.877Z,78.14
2023-09-21T05:06:12.386Z,78.88
2023-09-21T05:08:40.611Z,78.85
2023-09-21T05:11:08.824Z,78.77
2023-09-21T05:13:37.877Z,79.42
2023-09-21T05:16:08.103Z,79.17
2023-09-21T05:18:36.334Z,78.94
2023-09-21T05:21:06.104Z,80.06
2023-09-21T05:23:35.274Z,80.58
2023-09-21T05:26:04.434Z,80.79
2023-09-21T05:28:32.767Z,80.89
2023-09-21T05:31:01.661Z,81.69
2023-09-21T05:33:33.182Z,82.06
2023-09-21T05:36:06.232Z,83.13
2023-09-21T05:38:34.880Z,83.09
2023-09-21T05:41:05.262Z,83.28
2023-09-21T05:43:33.978Z,83.82
2023-09-21T05:46:02.354Z,83.98
2023-09-21T05:48:32.442Z,84.19
2023-09-21T05:51:03.033Z,84.67
2023-09-21T05:53:32.440Z,84.67
2023-09-21T05:56:00.760Z,84.68
2023-09-21T05:58:31.103Z,84.50
2023-09-21T06:01:00.963Z,84.94
2023-09-21T06:03:29.513Z,85.21
2023-09-21T06:05:59.278Z,84.61
2023-09-21T06:08:28.653Z,85.57
2023-09-21T06:10:58.145Z,85.13
2023-09-21T06:13:27.200Z,85.08
2023-09-21T06:15:55.402Z,85.68
2023-09-21T06:18:24.528Z,86.62
2023-09-21T06:20:56.386Z,86.84
2023-09-21T06:23:26.204Z,87.08
2023-09-21T06:25:55.396Z,87.06
2023-09-21T06:28:23.688Z,87.07
2023-09-21T06:30:52.652Z,87.04
2023-09-21T06:33:25.392Z,87.22
2023-09-21T06:35:54.034Z,87.02
2023-09-21T06:38:22.979Z,86.65
2023-09-21T06:40:52.521Z,87.27
2023-09-21T06:43:21.315Z,84.30
2023-09-21T06:45:49.608Z,83.59
2023-09-21T06:48:18.068Z,84.33
2023-09-21T06:50:49.342Z,84.47
2023-09-21T06:53:17.858Z,83.62
2023-09-21T06:55:46.039Z,83.40
2023-09-21T06:58:15.826Z,82.64
2023-09-21T07:00:45.030Z,82.36
2023-09-21T07:03:13.851Z,82.34
2023-09-21T07:05:43.933Z,82.18
2023-09-21T07:08:12.300Z,82.35
2023-09-21T07:10:40.500Z,81.93
2023-09-21T07:13:10.132Z,82.49
2023-09-21T07:15:39.919Z,81.97
2023-09-21T07:18:08.723Z,81.62
2023-09-21T07:20:37.274Z,80.61
2023-09-21T07:23:05.757Z,80.50
2023-09-21T07:25:34.134Z,80.39
2023-09-21T07:28:02.283Z,79.88
2023-09-21T07:30:32.522Z,79.59
2023-09-21T07:33:02.761Z,79.61
2023-09-21T07:35:31.591Z,79.71
2023-09-21T07:38:02.021Z,80.20
2023-09-21T07:40:32.512Z,79.96
2023-09-21T07:43:01.062Z,80.07
2023-09-21T07:45:32.131Z,80.07
2023-09-21T07:48:02.062Z,79.70
2023-09-21T07:50:35.915Z,79.05
2023-09-21T07:53:05.384Z,78.51
2023-09-21T07:55:35.227Z,78.53
2023-09-21T07:58:03.743Z,78.35
2023-09-21T08:00:32.053Z,78.50
2023-09-21T08:03:01.948Z,78.49
2023-09-21T08:05:32.175Z,78.22
2023-09-21T08:08:01.216Z,78.37
2023-09-21T08:10:33.182Z,78.66
2023-09-21T08:13:03.418Z,78.63
2023-09-21T08:15:32.042Z,78.87
2023-09-21T08:18:02.323Z,78.33
2023-09-21T08:20:30.875Z,77.87
2023-09-21T08:22:59.053Z,77.98
2023-09-21T08:25:27.393Z,78.12
2023-09-21T08:27:57.176Z,78.36
2023-09-21T08:30:25.706Z,78.29
2023-09-21T08:32:54.173Z,77.96
2023-09-21T08:35:23.931Z,78.32
2023-09-21T08:37:52.468Z,78.45
2023-09-21T08:40:22.912Z,78.72
2023-09-21T08:42:56.861Z,78.79
2023-09-21T08:45:26.653Z,78.53
2023-09-21T08:47:56.614Z,78.36
2023-09-21T08:50:28.201Z,78.76
2023-09-21T08:52:58.937Z,78.25
2023-09-21T08:55:28.183Z,78.26
2023-09-21T08:57:57.544Z,78.59
2023-09-21T09:00:30.198Z,79.30
2023-09-21T09:02:59.908Z,79.87
2023-09-21T09:05:29.661Z,79.86
2023-09-21T09:07:58.270Z,79.48
2023-09-21T09:10:26.698Z,79.99
2023-09-21T09:13:07.686Z,80.02
2023-09-21T09:15:38.634Z,79.99
2023-09-21T09:18:07.736Z,79.74
2023-09-21T09:20:38.771Z,79.75
2023-09-21T09:23:11.468Z,79.66
2023-09-21T09:25:40.587Z,79.58
2023-09-21T09:28:10.186Z,79.61
2023-09-21T09:30:38.984Z,79.88
2023-09-21T09:33:11.108Z,79.79
2023-09-21T09:35:42.475Z,79.76
2023-09-21T09:38:11.568Z,78.69
2023-09-21T09:40:40.530Z,79.58
2023-09-21T09:43:10.012Z,79.93
2023-09-21T09:45:40.119Z,80.61
2023-09-21T09:48:14.125Z,81.33
2023-09-21T09:50:44.349Z,81.72
2023-09-21T09:53:14.672Z,81.49
2023-09-21T09:55:45.032Z,81.34
2023-09-21T09:58:16.404Z,81.46
2023-09-21T10:00:46.227Z,81.61
2023-09-21T10:03:15.763Z,81.73
2023-09-21T10:05:47.361Z,81.11
2023-09-21T10:08:16.597Z,81.09
2023-09-21T10:10:48.729Z,80.83
2023-09-21T10:13:18.164Z,81.31
2023-09-21T10:15:52.948Z,81.59
2023-09-21T10:18:36.556Z,81.01
2023-09-21T10:21:25.842Z,80.57
2023-09-21T10:24:05.097Z,80.41
2023-09-21T10:26:36.262Z,80.35
2023-09-21T10:29:05.516Z,80.81
2023-09-21T10:31:35.077Z,80.82
2023-09-21T10:34:11.356Z,80.33
2023-09-21T10:36:47.599Z,79.73
2023-09-21T10:39:27.680Z,79.17
2023-09-21T10:41:58.702Z,77.94
2023-09-21T10:45:03.649Z,78.61
2023-09-21T10:47:40.128Z,79.20
2023-09-21T10:50:12.509Z,79.62
2023-09-21T10:52:46.919Z,79.46
2023-09-21T10:55:17.862Z,79.58
2023-09-21T10:57:48.319Z,79.99
2023-09-21T11:00:19.570Z,79.49
2023-09-21T11:02:51.152Z,80.29
2023-09-21T11:05:22.483Z,81.89
2023-09-21T11:07:53.732Z,82.95
2023-09-21T11:10:22.208Z,82.50
2023-09-21T11:12:50.776Z,82.26
2023-09-21T11:15:19.774Z,81.91
2023-09-21T11:17:49.311Z,81.93
2023-09-21T11:20:21.885Z,80.91
2023-09-21T11:22:53.069Z,80.13
2023-09-21T11:25:24.218Z,80.11
2023-09-21T11:27:53.235Z,79.92
2023-09-21T11:30:24.248Z,79.15
2023-09-21T11:32:55.344Z,78.71
2023-09-21T11:35:25.031Z,78.50
2023-09-21T11:37:55.725Z,78.80
2023-09-21T11:40:24.678Z,78.96
2023-09-21T11:42:59.150Z,78.98
2023-09-21T11:45:29.210Z,78.67
2023-09-21T11:47:59.751Z,78.42
2023-09-21T11:50:33.294Z,78.68
2023-09-21T11:53:08.073Z,78.81
2023-09-21T11:55:37.935Z,79.24
2023-09-21T11:58:11.013Z,79.04
2023-09-21T12:00:51.302Z,79.05
2023-09-21T12:03:25.099Z,78.52
2023-09-21T12:05:57.222Z,78.47
2023-09-21T12:08:28.159Z,78.35
2023-09-21T12:10:56.592Z,77.95
2023-09-21T12:13:25.067Z,78.13
2023-09-21T12:15:58.385Z,77.66
2023-09-21T12:18:29.856Z,77.60
2023-09-21T12:20:59.331Z,77.36
2023-09-21T12:23:29.528Z,77.35
2023-09-21T12:25:58.053Z,77.53
2023-09-21T12:28:26.408Z,77.32
2023-09-21T12:30:56.066Z,77.36
2023-09-21T12:35:55.722Z,77.71
2023-09-21T12:38:24.144Z,77.95
2023-09-21T12:40:55.820Z,77.82
2023-09-21T12:43:24.301Z,77.80
2023-09-21T12:45:52.572Z,77.57
2023-09-21T12:48:20.953Z,77.07
2023-09-21T12:50:49.308Z,76.79
2023-09-21T12:53:17.528Z,76.89
2023-09-21T12:55:45.676Z,76.56
2023-09-21T12:58:15.554Z,76.53
2023-09-21T13:00:46.287Z,76.40
2023-09-21T13:03:15.434Z,75.94
2023-09-21T13:05:46.345Z,76.45
2023-09-21T13:08:14.990Z,76.70
2023-09-21T13:10:44.667Z,77.10
2023-09-21T13:13:14.415Z,77.41
2023-09-21T13:15:43.706Z,77.47
2023-09-21T13:18:15.287Z,77.53
2023-09-21T13:20:44.247Z,76.86
2023-09-21T13:23:12.389Z,76.82
2023-09-21T13:25:41.484Z,76.53
2023-09-21T13:28:10.087Z,76.45
2023-09-21T13:30:39.957Z,76.46
2023-09-21T13:33:11.179Z,76.92
2023-09-21T13:35:39.683Z,77.33
2023-09-21T13:38:08.100Z,76.77
2023-09-21T13:40:36.388Z,76.76
2023-09-21T13:43:05.393Z,77.99
2023-09-21T13:45:36.011Z,78.38
2023-09-21T13:48:07.468Z,78.77
2023-09-21T13:50:36.603Z,78.86
2023-09-21T13:53:06.059Z,78.26
2023-09-21T13:55:35.601Z,78.57
2023-09-21T13:58:04.142Z,78.96
2023-09-21T14:00:34.732Z,78.97
2023-09-21T14:03:03.388Z,78.52
2023-09-21T14:05:33.469Z,79.00
2023-09-21T14:08:01.986Z,79.07
2023-09-21T14:10:31.059Z,78.71
2023-09-21T14:12:59.566Z,78.64
2023-09-21T14:15:27.807Z,78.23
2023-09-21T14:17:56.090Z,78.40
2023-09-21T14:20:24.542Z,78.88
2023-09-21T14:22:56.239Z,78.47
2023-09-21T14:25:24.425Z,78.52
2023-09-21T14:27:52.714Z,78.88
2023-09-21T14:30:21.105Z,79.06
2023-09-21T14:32:53.882Z,79.65
2023-09-21T14:35:22.571Z,79.46
2023-09-21T14:37:50.863Z,79.39
2023-09-21T14:40:21.117Z,79.64
2023-09-21T14:42:49.382Z,79.64
2023-09-21T14:45:20.070Z,79.82
2023-09-21T14:47:48.478Z,80.17
2023-09-21T14:50:17.815Z,80.65
2023-09-21T14:52:46.494Z,80.99
2023-09-21T14:55:15.508Z,81.54
2023-09-21T14:57:45.152Z,81.39
2023-09-21T15:00:18.023Z,81.29
2023-09-21T15:02:46.312Z,81.28
2023-09-21T15:05:14.643Z,81.18
2023-09-21T15:07:42.982Z,80.92
2023-09-21T15:10:12.159Z,81.05
2023-09-21T15:12:41.385Z,80.54
2023-09-21T15:15:12.998Z,80.25
2023-09-21T15:17:41.439Z,81.02
2023-09-21T15:20:10.494Z,80.33
2023-09-21T15:22:38.766Z,80.09
2023-09-21T15:25:08.177Z,80.53
2023-09-21T15:27:36.712Z,80.64
2023-09-21T15:30:05.884Z,80.98
2023-09-21T15:32:35.903Z,80.40
2023-09-21T15:35:04.232Z,80.33
2023-09-21T15:37:34.778Z,80.26
2023-09-21T15:40:05.660Z,80.08
2023-09-21T15:42:34.179Z,80.02
2023-09-21T15:45:02.682Z,79.84
2023-09-21T15:47:30.875Z,80.35
2023-09-21T15:50:00.420Z,80.72
2023-09-21T15:52:29.196Z,80.63
2023-09-21T15:54:57.648Z,80.73
2023-09-21T15:57:26.028Z,80.72
2023-09-21T15:59:54.446Z,80.75
2023-09-21T16:02:22.639Z,80.86
2023-09-21T16:04:51.485Z,80.58
2023-09-21T16:07:21.155Z,81.15
2023-09-21T16:09:49.490Z,80.97
2023-09-21T16:12:17.997Z,81.11
2023-09-21T16:14:46.700Z,80.79
2023-09-21T16:17:14.966Z,81.21
2023-09-21T16:19:43.205Z,81.70
2023-09-21T16:22:11.572Z,81.76
2023-09-21T16:24:41.281Z,82.11
2023-09-21T16:27:09.819Z,82.02
2023-09-21T16:29:38.138Z,82.05
2023-09-21T16:32:06.684Z,81.82
2023-09-21T16:34:35.002Z,82.46
2023-09-21T16:37:03.866Z,82.33
2023-09-21T16:39:33.013Z,82.98
2023-09-21T16:42:02.638Z,82.64
2023-09-21T16:44:31.887Z,83.52
2023-09-21T16:47:00.501Z,82.75
2023-09-21T16:49:29.235Z,82.69
2023-09-21T16:51:58.315Z,82.68
2023-09-21T16:54:26.651Z,82.34
2023-09-21T16:56:55.895Z,82.28
2023-09-21T16:59:25.559Z,82.44
2023-09-21T17:01:53.986Z,82.55
2023-09-21T17:04:22.324Z,82.16
2023-09-21T17:06:50.744Z,82.03
2023-09-21T17:09:19.172Z,81.60
2023-09-21T17:11:47.498Z,81.49
2023-09-21T17:14:15.812Z,81.52
2023-09-21T17:16:45.743Z,81.50
2023-09-21T17:19:14.885Z,81.77
2023-09-21T17:21:44.397Z,81.77
2023-09-21T17:24:12.711Z,81.41
2023-09-21T17:26:41.926Z,81.53
2023-09-21T17:29:10.841Z,81.77
2023-09-21T17:31:39.202Z,81.73
2023-09-21T17:34:08.882Z,82.18
2023-09-21T17:36:37.162Z,81.91
2023-09-21T17:39:06.113Z,82.09
2023-09-21T17:41:35.298Z,82.28
2023-09-21T17:44:03.532Z,82.90
2023-09-21T17:46:32.621Z,83.95
2023-09-21T17:49:00.918Z,83.50
2023-09-21T17:51:30.624Z,82.92
2023-09-21T17:53:58.965Z,82.95
2023-09-21T17:56:27.229Z,82.63
2023-09-21T17:58:55.639Z,83.07
2023-09-21T18:01:27.225Z,83.11
2023-09-21T18:03:56.188Z,82.89
2023-09-21T18:06:24.663Z,82.49
2023-09-21T18:08:54.331Z,82.24
2023-09-21T18:11:22.549Z,82.61
2023-09-21T18:13:50.799Z,82.56
2023-09-21T18:16:19.111Z,82.54
2023-09-21T18:18:47.907Z,82.50
2023-09-21T18:21:16.298Z,83.01
2023-09-21T18:23:45.016Z,82.97
2023-09-21T18:26:15.582Z,83.05
2023-09-21T18:28:44.208Z,83.10
2023-09-21T18:31:13.070Z,83.18
2023-09-21T18:33:42.282Z,83.40
2023-09-21T18:36:11.084Z,84.40
2023-09-21T18:38:39.337Z,85.32
2023-09-21T18:41:07.730Z,84.60
2023-09-21T18:43:38.679Z,85.06
2023-09-21T18:46:07.078Z,84.91
2023-09-21T18:48:35.897Z,85.32
2023-09-21T18:51:04.345Z,85.19
2023-09-21T18:53:32.650Z,85.04
2023-09-21T18:56:00.897Z,84.76
2023-09-21T18:58:29.092Z,84.83
2023-09-21T19:00:58.876Z,85.38
2023-09-21T19:03:27.477Z,84.79
2023-09-21T19:05:55.775Z,84.52
2023-09-21T19:08:24.298Z,84.49
2023-09-21T19:10:52.789Z,84.13
2023-09-21T19:13:21.636Z,83.94
2023-09-21T19:15:50.162Z,83.84
2023-09-21T19:18:19.932Z,83.97
2023-09-21T19:20:48.140Z,84.15
2023-09-21T19:23:16.766Z,84.37
2023-09-21T19:25:44.984Z,84.91
2023-09-21T19:28:13.388Z,84.78
2023-09-21T19:30:41.819Z,84.48
2023-09-21T19:33:10.129Z,84.43
2023-09-21T19:35:39.766Z,84.47
2023-09-21T19:38:08.499Z,84.16
2023-09-21T19:40:36.791Z,84.34
2023-09-21T19:43:05.990Z,84.81
2023-09-21T19:45:34.269Z,85.06
2023-09-21T19:48:02.700Z,85.92
2023-09-21T19:50:31.163Z,85.86
2023-09-21T19:53:00.728Z,85.79
2023-09-21T19:55:29.257Z,85.87
2023-09-21T19:57:57.553Z,85.37
2023-09-21T20:00:26.538Z,84.98
2023-09-21T20:02:55.151Z,84.87
2023-09-21T20:05:23.747Z,84.87
2023-09-21T20:07:52.062Z,85.31
2023-09-21T20:10:22.098Z,85.92
2023-09-21T20:12:50.671Z,85.66
2023-09-21T20:15:19.205Z,85.83
2023-09-21T20:17:48.436Z,85.71
2023-09-21T20:20:16.960Z,85.52
2023-09-21T20:22:45.330Z,85.61
2023-09-21T20:25:13.719Z,86.12
2023-09-21T20:27:43.495Z,86.96
2023-09-21T20:30:13.139Z,88.12
2023-09-21T20:32:41.863Z,87.82
2023-09-21T20:35:10.456Z,87.30
2023-09-21T20:37:38.787Z,87.36
2023-09-21T20:40:09.120Z,87.30
2023-09-21T20:42:37.459Z,88.04
2023-09-21T20:45:12.529Z,88.77
2023-09-21T20:47:41.134Z,89.33
2023-09-21T20:50:11.059Z,89.01
2023-09-21T20:52:39.970Z,88.91
2023-09-21T20:55:08.823Z,88.79
2023-09-21T20:57:37.267Z,88.79
2023-09-21T21:00:10.254Z,89.19
2023-09-21T21:02:38.660Z,88.76
2023-09-21T21:05:07.381Z,88.93
2023-09-21T21:07:36.294Z,88.82
2023-09-21T21:10:06.309Z,89.44
2023-09-21T21:12:35.079Z,89.70
2023-09-21T21:15:04.389Z,88.79
2023-09-21T21:17:34.401Z,88.79
2023-09-21T21:20:04.476Z,88.96
2023-09-21T21:22:33.397Z,88.42
2023-09-21T21:25:01.748Z,88.34
2023-09-21T21:27:30.086Z,88.25
2023-09-21T21:29:58.304Z,88.49
2023-09-21T21:32:26.567Z,88.91
2023-09-21T21:34:56.069Z,88.60
2023-09-21T21:37:24.904Z,87.94
2023-09-21T21:39:53.113Z,88.18
2023-09-21T21:42:21.755Z,87.80
2023-09-21T21:44:51.525Z,87.79
2023-09-21T21:47:19.807Z,87.94
2023-09-21T21:49:48.008Z,88.20
2023-09-21T21:52:17.578Z,88.62
2023-09-21T21:54:45.823Z,88.67
2023-09-21T21:57:15.137Z,88.53
2023-09-21T21:59:43.668Z,89.10
2023-09-21T22:02:11.904Z,89.18
2023-09-21T22:04:41.240Z,89.00
2023-09-21T22:07:09.671Z,90.62
2023-09-21T22:09:42.069Z,90.29
2023-09-21T22:12:12.149Z,90.04
2023-09-21T22:14:41.190Z,90.43
2023-09-21T22:17:09.617Z,90.45
2023-09-21T22:19:37.912Z,89.58
2023-09-21T22:22:06.042Z,90.31
2023-09-21T22:24:34.687Z,90.74
2023-09-21T22:27:04.287Z,91.37
2023-09-21T22:29:31.573Z,91.17
2023-09-21T22:31:59.839Z,90.94
2023-09-21T22:34:28.121Z,90.79
2023-09-21T22:36:57.177Z,90.79
2023-09-21T22:39:25.483Z,90.25
2023-09-21T22:41:53.692Z,91.30
2023-09-21T22:44:23.276Z,91.80
2023-09-21T22:46:51.990Z,91.68
2023-09-21T22:49:20.591Z,92.02
2023-09-21T22:51:49.247Z,91.93
2023-09-21T22:54:17.551Z,92.35
2023-09-21T22:56:45.682Z,92.26
2023-09-21T22:59:13.998Z,91.88
2023-09-21T23:01:43.854Z,91.52
2023-09-21T23:04:13.602Z,91.43
2023-09-21T23:06:42.388Z,91.02
2023-09-21T23:09:11.238Z,91.45
2023-09-21T23:11:40.604Z,92.50
2023-09-21T23:14:10.426Z,92.32
2023-09-21T23:16:39.029Z,91.77
2023-09-21T23:19:09.115Z,91.60
2023-09-21T23:21:37.685Z,90.73
2023-09-21T23:24:11.299Z,90.72
2023-09-21T23:26:40.301Z,90.41
2023-09-21T23:29:09.837Z,90.09
2023-09-21T23:31:39.066Z,90.66
2023-09-21T23:34:08.956Z,90.61
2023-09-21T23:36:37.629Z,90.76
2023-09-21T23:39:13.720Z,91.40
2023-09-21T23:41:43.023Z,92.02
2023-09-21T23:44:13.151Z,91.86
2023-09-21T23:46:45.908Z,91.74
2023-09-21T23:49:16.874Z,91.01
2023-09-21T23:51:45.078Z,91.16
2023-09-21T23:54:14.106Z,90.74
2023-09-21T23:56:42.343Z,90.43
2023-09-21T23:59:10.608Z,89.96
